Latest Weather Observations for Bendigo

IDV60801

Issued at 9:52 am EDT Tuesday 22 January 2019 (issued every 10 minutes, with the page automatically refreshed every 10 minutes)

About weather observations | Map of weather stations | Latest weather observations for VIC | Other Formats
Station Details ID: 081123 Name: BENDIGO AIRPORT Lat: -36.74 Lon: 144.33 Height: 209.17 m
Data from the previous 72 hours. | See also: Recent months at Bendigo
Date/Time
EDT
Temp
°C
App
Temp
°C
Dew
Point
°C
Rel
Hum
%
Delta-T
°C
Wind Press
QNH
hPa
Press
MSL
hPa
Rain since
9am
mm
Dir  Spd
km/h
Gust
km/h
Spd
kts
Gust
kts
22/09:30am 30.7 28.8 10.6 29 11.6 ESE 11 17 6 9 1012.9 1012.0 0.0
22/09:00am 29.5 26.7 8.5 27 11.7 SE 13 17 7 9 1012.8 1011.9 0.0
22/08:30am 27.9 25.3 9.2 31 10.4 SE 13 17 7 9 1012.6 1011.7 0.0
22/08:00am 25.8 23.3 11.2 40 8.3 SSE 15 19 8 10 1012.3 1011.4 0.0
22/07:30am 24.0 22.3 11.3 45 7.2 SSE 11 15 6 8 1012.3 1011.4 0.0
22/07:00am 19.7 20.4 12.2 62 4.2 CALM 0 0 0 0 1012.2 1011.3 0.0
22/06:30am 19.5 18.6 11.5 60 4.4 SSE 7 7 4 4 1012.1 1011.2 0.0
22/06:00am 18.9 18.7 13.1 69 3.3 SW 6 9 3 5 1012.0 1011.1 0.0
22/05:30am 19.3 19.0 12.8 66 3.7 S 6 7 3 4 1011.5 1010.7 0.0
22/05:00am 20.6 19.5 12.1 58 4.8 SSE 9 11 5 6 1011.3 1010.5 0.0
22/04:30am 20.9 19.5 12.1 57 5.0 SSE 11 15 6 8 1011.4 1010.6 0.0
22/04:00am 21.4 19.3 12.5 57 5.1 SSE 15 17 8 9 1011.5 1010.7 0.0
22/03:30am 21.9 19.5 12.5 55 5.4 SSE 17 20 9 11 1011.7 1010.9 0.0
22/03:00am 22.2 19.2 12.5 54 5.6 SSE 20 26 11 14 1011.9 1011.0 0.0
22/02:30am 22.6 19.9 12.8 54 5.7 SSE 19 26 10 14 1012.1 1011.2 0.0
22/02:00am 22.2 19.9 13.0 56 5.3 SSE 17 24 9 13 1012.3 1011.4 0.0
22/01:30am 22.5 19.9 13.3 56 5.4 SSE 19 26 10 14 1012.5 1011.6 0.0
22/01:00am 22.8 20.3 13.6 56 5.4 SSE 19 28 10 15 1012.7 1011.8 0.0
22/12:30am 23.0 20.2 14.3 58 5.2 SSE 22 30 12 16 1013.0 1012.1 0.0
22/12:00am 23.6 21.1 15.1 59 5.1 SSE 22 30 12 16 1013.1 1012.2 0.0
 
Date/Time
EDT
Temp
°C
App
Temp
°C
Dew
Point
°C
Rel
Hum
%
Delta-T
°C
Wind Press
QNH
hPa
Press
MSL
hPa
Rain since
9am
mm
Dir  Spd
km/h
Gust
km/h
Spd
kts
Gust
kts
21/11:30pm 24.6 23.6 15.5 57 5.5 SSE 15 24 8 13 1013.2 1012.3 0.0
21/11:00pm 25.6 24.6 15.6 54 6.1 SSE 15 20 8 11 1013.4 1012.5 0.0
21/10:30pm 26.9 25.8 15.3 49 7.1 SE 15 22 8 12 1013.0 1012.1 0.0
21/10:00pm 28.7 26.6 15.2 43 8.3 SSE 20 28 11 15 1012.5 1011.6 0.0
21/09:30pm 30.5 28.2 14.6 38 9.8 SSE 20 30 11 16 1012.0 1011.1 0.0
21/09:00pm 30.4 28.4 6.3 22 13.0 WNW 6 7 3 4 1011.2 1010.4 0.0
21/08:30pm 34.2 31.3 4.8 16 15.8 WNW 9 11 5 6 1011.0 1010.2 0.0
21/08:00pm 36.0 33.0 4.3 14 17.0 W 9 13 5 7 1010.7 1009.9 0.0
21/07:30pm 37.4 35.0 4.4 13 17.9 SW 6 11 3 6 1010.5 1009.7 0.0
21/07:00pm 37.6 34.5 5.6 14 17.7 SE 11 20 6 11 1010.4 1009.6 0.0
21/06:30pm 37.3 34.5 5.3 14 17.6 SSW 9 17 5 9 1010.4 1009.6 0.0
21/06:00pm 37.2 34.6 6.3 15 17.2 NE 9 17 5 9 1010.5 1009.7 0.0
21/05:30pm 37.1 35.1 6.2 15 17.2 ENE 6 11 3 6 1010.8 1010.0 0.0
21/05:00pm 37.8 35.2 7.7 16 17.2 WNW 11 19 6 10 1011.0 1010.2 0.0
21/04:30pm 37.0 34.8 7.9 17 16.6 SW 9 17 5 9 1011.3 1010.5 0.0
21/04:00pm 37.7 35.7 8.5 17 16.9 W 9 13 5 7 1011.6 1010.8 0.0
21/03:30pm 36.7 34.5 9.3 19 15.9 NNE 11 17 6 9 1012.2 1011.3 0.0
21/03:00pm 36.6 34.0 9.2 19 15.9 NNW 13 20 7 11 1012.6 1011.7 0.0
21/02:30pm 36.7 33.9 10.1 20 15.6 NNE 15 24 8 13 1012.9 1012.0 0.0
21/02:00pm 35.2 33.6 11.6 24 14.1 SW 11 17 6 9 1013.3 1012.4 0.0
21/01:30pm 34.7 34.3 13.0 27 13.2 N 7 13 4 7 1013.8 1012.9 0.0
21/01:00pm 34.1 33.9 13.5 28 12.6 E 7 13 4 7 1014.3 1013.5 0.0
21/12:30pm 33.2 33.2 14.3 32 11.7 NE 7 13 4 7 1014.9 1014.1 0.0
21/12:00pm 32.6 31.7 13.8 32 11.5 NE 11 22 6 12 1015.1 1014.3 0.0
21/11:30am 30.8 30.1 14.4 36 10.1 NE 11 19 6 10 1015.5 1014.7 0.0
21/11:00am 29.9 29.4 14.8 39 9.3 ENE 11 24 6 13 1015.7 1014.9 0.0
21/10:30am 28.0 27.0 14.6 44 8.2 ESE 13 22 7 12 1016.0 1015.2 0.0
21/10:00am 27.1 25.9 14.1 44 7.8 ESE 13 19 7 10 1016.3 1015.5 0.0
21/09:30am 25.3 23.7 13.8 49 6.8 SE 15 20 8 11 1016.5 1015.7 0.0
21/09:00am 23.4 21.3 13.6 54 5.7 SE 17 22 9 12 1016.4 1015.6 0.0
21/08:30am 21.8 19.7 13.7 60 4.7 SE 17 26 9 14 1016.4 1015.6 0.0
21/08:00am 19.9 17.5 13.8 68 3.5 SE 19 26 10 14 1016.2 1015.4 0.0
21/07:30am 18.7 16.1 13.8 73 2.8 SE 20 30 11 16 1015.9 1015.1 0.0
21/07:00am 17.7 15.6 13.6 77 2.3 SE 17 24 9 13 1015.7 1014.9 0.0
21/06:30am 17.3 15.1 13.4 78 2.2 SE 17 24 9 13 1015.4 1014.6 0.0
21/06:00am 17.6 15.0 13.3 76 2.4 SSE 19 26 10 14 1015.2 1014.4 0.0
21/05:30am 17.9 15.2 13.4 75 2.6 SSE 20 26 11 14 1015.2 1014.4 0.0
21/05:00am 18.2 16.0 13.3 73 2.8 SE 17 28 9 15 1015.5 1014.7 0.0
21/04:30am 18.5 15.3 13.1 71 3.1 SSE 22 28 12 15 1015.2 1014.4 0.0
21/04:00am 19.0 15.4 13.2 69 3.3 SSE 24 35 13 19 1015.3 1014.5 0.0
21/03:30am 19.2 15.6 12.9 67 3.6 SSE 24 35 13 19 1015.3 1014.5 0.0
21/03:00am 19.2 15.5 12.7 66 3.7 SSE 24 32 13 17 1015.4 1014.6 0.0
21/02:30am 19.4 15.6 12.4 64 4.0 SSE 24 30 13 16 1015.5 1014.7 0.0
21/02:00am 19.6 16.6 12.6 64 4.0 SSE 20 28 11 15 1015.9 1015.1 0.0
21/01:30am 19.8 16.1 12.6 63 4.1 SSE 24 33 13 18 1016.2 1015.4 0.0
21/01:00am 20.0 17.0 12.5 62 4.2 SSE 20 26 11 14 1016.5 1015.7 0.0
21/12:30am 20.4 17.9 12.4 60 4.5 SSE 17 24 9 13 1016.9 1016.0 0.0
21/12:00am 20.5 17.5 12.5 60 4.5 SSE 20 30 11 16 1017.0 1016.1 0.0
 
Date/Time
EDT
Temp
°C
App
Temp
°C
Dew
Point
°C
Rel
Hum
%
Delta-T
°C
Wind Press
QNH
hPa
Press
MSL
hPa
Rain since
9am
mm
Dir  Spd
km/h
Gust
km/h
Spd
kts
Gust
kts
20/11:30pm 21.0 17.2 12.4 58 4.9 SSE 24 33 13 18 1017.0 1016.1 0.0
20/11:00pm 21.5 18.1 12.4 56 5.2 SSE 22 33 12 18 1017.3 1016.4 0.0
20/10:30pm 22.2 18.3 12.2 53 5.7 SSE 24 32 13 17 1017.4 1016.5 0.0
20/10:00pm 22.8 18.8 11.8 50 6.2 SSE 24 33 13 18 1017.4 1016.5 0.0
20/09:30pm 23.6 19.9 11.6 47 6.8 SSE 22 30 12 16 1017.2 1016.3 0.0
20/09:00pm 24.5 20.2 10.8 42 7.7 SSE 24 35 13 19 1016.9 1016.0 0.0
20/08:30pm 25.9 20.7 8.8 34 9.4 S 26 35 14 19 1016.5 1015.7 0.0
20/08:00pm 27.7 22.1 7.0 27 11.1 S 26 35 14 19 1016.3 1015.5 0.0
20/07:30pm 29.8 24.6 8.8 27 11.7 SSE 26 35 14 19 1015.9 1015.1 0.0
20/07:00pm 30.6 25.6 9.5 27 12.0 SE 26 39 14 21 1015.7 1014.9 0.0
20/06:30pm 31.6 26.7 9.8 26 12.5 SSE 26 37 14 20 1015.5 1014.7 0.0
20/06:00pm 32.9 28.7 9.7 24 13.3 SSE 22 32 12 17 1015.5 1014.7 0.0
20/05:30pm 32.8 28.5 10.8 26 12.9 SSE 24 35 13 19 1015.7 1014.9 0.0
20/05:00pm 32.9 28.5 10.3 25 13.1 SE 24 35 13 19 1015.9 1015.1 0.0
20/04:30pm 33.8 30.0 9.8 23 13.9 SE 20 33 11 18 1016.2 1015.4 0.0
20/04:00pm 34.0 30.6 10.6 24 13.7 SSE 19 28 10 15 1016.3 1015.5 0.0
20/03:30pm 33.1 30.4 10.4 25 13.2 SSE 15 26 8 14 1016.5 1015.7 0.0
20/03:00pm 33.4 30.6 10.1 24 13.5 SSE 15 30 8 16 1017.0 1016.1 0.0
20/02:30pm 33.3 30.1 11.2 26 13.0 SE 19 30 10 16 1017.3 1016.4 0.0
20/02:00pm 31.9 28.5 10.6 27 12.4 SE 19 30 10 16 1017.7 1016.8 0.0
20/01:30pm 31.6 29.4 10.9 28 12.1 ESE 13 30 7 16 1018.2 1017.3 0.0
20/01:00pm 31.2 29.3 10.5 28 11.9 S 11 20 6 11 1018.4 1017.6 0.0
20/12:30pm 30.9 28.3 10.8 29 11.7 SE 15 24 8 13 1018.7 1017.9 0.0
20/12:00pm 30.0 27.4 12.0 33 10.6 ESE 17 22 9 12 1019.1 1018.3 0.0
20/11:30am 28.9 25.8 11.5 34 10.1 ESE 19 26 10 14 1019.2 1018.4 0.0
20/11:00am 27.1 25.6 12.0 39 8.8 SSE 11 26 6 14 1019.3 1018.5 0.0
20/10:30am 26.4 24.1 11.7 40 8.5 SE 15 20 8 11 1019.6 1018.8 0.0
20/10:00am 24.6 21.8 11.5 44 7.4 SE 17 26 9 14 1019.6 1018.8 0.0
20/09:30am 22.4 20.3 11.2 49 6.3 SSE 13 20 7 11 1019.7 1018.9 0.0
20/09:00am 21.0 18.0 10.8 52 5.6 SSE 17 24 9 13 1019.7 1018.9 0.0
20/08:30am 19.7 16.3 10.4 55 5.1 SSE 19 24 10 13 1019.3 1018.5 0.0
20/08:00am 18.3 15.2 10.2 59 4.4 SSE 17 26 9 14 1019.0 1018.2 0.0
20/07:30am 17.4 14.5 9.6 60 4.1 SSE 15 20 8 11 1018.8 1018.0 0.0
20/07:00am 16.1 13.4 8.8 62 3.8 S 13 20 7 11 1018.5 1017.7 0.0
20/06:30am 15.7 12.6 8.9 64 3.5 SSE 15 20 8 11 1018.2 1017.3 0.0
20/06:00am 15.8 12.9 9.5 66 3.3 S 15 22 8 12 1018.3 1017.4 0.0
20/05:30am 15.7 12.0 9.6 67 3.2 S 19 28 10 15 1018.2 1017.3 0.0
20/05:00am 15.8 12.6 9.9 68 3.1 S 17 28 9 15 1018.3 1017.4 0.0
20/04:30am 15.9 13.1 10.0 68 3.1 S 15 28 8 15 1018.5 1017.7 0.0
20/04:00am 16.0 12.7 9.7 66 3.3 S 17 24 9 13 1018.8 1018.0 0.0
20/03:30am 15.7 13.0 9.1 65 3.4 SSW 13 20 7 11 1019.0 1018.2 0.0
20/03:00am 15.6 13.5 9.7 68 3.1 SSW 11 15 6 8 1019.0 1018.2 0.0
20/02:30am 15.7 13.7 10.0 69 3.0 SSW 11 17 6 9 1019.1 1018.3 0.0
20/02:00am 15.3 13.2 9.7 69 2.9 SSW 11 17 6 9 1019.1 1018.3 0.0
20/01:30am 15.6 13.5 9.7 68 3.1 S 11 17 6 9 1019.3 1018.5 0.0
20/01:00am 15.8 13.2 9.5 66 3.3 S 13 20 7 11 1019.5 1018.7 0.0
20/12:30am 16.2 13.5 8.9 62 3.8 S 13 20 7 11 1020.2 1019.4 0.0
20/12:00am 16.8 12.7 8.8 59 4.1 S 20 30 11 16 1019.7 1018.9 0.0
 
Date/Time
EDT
Temp
°C
App
Temp
°C
Dew
Point
°C
Rel
Hum
%
Delta-T
°C
Wind Press
QNH
hPa
Press
MSL
hPa
Rain since
9am
mm
Dir  Spd
km/h
Gust
km/h
Spd
kts
Gust
kts
19/11:30pm 17.1 13.2 8.8 58 4.3 S 19 24 10 13 1020.0 1019.2 0.0
19/11:00pm 17.5 13.7 8.9 57 4.5 S 19 35 10 19 1020.1 1019.3 0.0
19/10:30pm 18.3 13.9 9.1 55 4.9 S 22 33 12 18 1019.8 1019.0 0.0
19/10:00pm 19.2 15.3 9.4 53 5.2 S 20 28 11 15 1019.3 1018.5 0.0
19/09:30pm 20.5 15.8 9.4 49 6.0 SSE 24 33 13 18 1019.0 1018.2 0.0
19/09:00pm 21.8 17.5 9.3 45 6.7 SSE 22 32 12 17 1018.6 1017.8 0.0
19/08:30pm 23.2 18.0 8.9 40 7.7 SSE 26 37 14 20 1018.1 1017.2 0.0
19/08:00pm 25.1 19.3 8.1 34 9.1 SSE 28 37 15 20 1018.0 1017.1 0.0
19/07:30pm 26.6 21.5 7.6 30 10.2 SSE 24 32 13 17 1017.7 1016.8 0.0
19/07:00pm 28.0 23.1 6.7 26 11.4 SSE 22 32 12 17 1017.5 1016.6 0.0
19/06:30pm 28.8 23.4 6.2 24 12.0 SSE 24 33 13 18 1017.1 1016.2 0.0
19/06:00pm 29.4 23.9 6.1 23 12.4 SSE 24 33 13 18 1017.2 1016.3 0.0
19/05:30pm 29.2 23.6 5.3 22 12.6 SSE 24 33 13 18 1017.5 1016.6 0.0
19/05:00pm 29.9 23.9 5.2 21 13.0 SSE 26 37 14 20 1017.7 1016.8 0.0
19/04:30pm 30.0 25.0 4.6 20 13.2 SSE 20 30 11 16 1017.7 1016.8 0.0
19/04:00pm 30.1 24.4 4.7 20 13.3 SSE 24 33 13 18 1018.0 1017.1 0.0
19/03:30pm 29.3 23.9 4.7 21 12.8 S 22 32 12 17 1018.3 1017.4 0.0
19/03:00pm 29.5 25.7 5.6 22 12.6 SSW 15 26 8 14 1018.6 1017.8 0.0
19/02:30pm 28.0 23.8 5.6 24 11.7 S 17 28 9 15 1018.8 1018.0 0.0
19/02:00pm 26.5 22.9 4.9 25 11.1 S 13 20 7 11 1019.3 1018.5 0.0
19/01:30pm 26.6 22.1 4.4 24 11.3 SSW 17 30 9 16 1019.6 1018.8 0.0
19/01:00pm 25.9 22.3 4.9 26 10.7 SSE 13 22 7 12 1019.7 1018.9 0.0
19/12:30pm 25.6 21.8 4.1 25 10.8 SSE 13 26 7 14 1020.0 1019.2 0.0
19/12:00pm 24.6 20.7 5.4 29 9.8 SSW 15 24 8 13 1020.1 1019.3 0.0
19/11:30am 22.7 18.3 4.7 31 9.0 SSW 17 26 9 14 1020.2 1019.4 0.0
19/11:00am 22.9 18.6 5.3 32 8.9 SSE 17 24 9 13 1020.1 1019.3 0.0
19/10:30am 21.6 16.4 5.5 35 8.1 SSE 22 32 12 17 1020.2 1019.4 0.0
19/10:00am 20.7 16.2 7.0 41 7.0 SSE 20 28 11 15 1020.3 1019.5 0.0

Other Formats:

Comma delimited format used in spreadsheet applications
http://www.bom.gov.au/fwo/IDV60801/IDV60801.94855.axf

JavaScript Object Notation format (JSON) in row-major order
http://www.bom.gov.au/fwo/IDV60801/IDV60801.94855.json